Time;durP1;ratioP1;P1;durP2;ratioP2;P2;SDS_P1;SDS_P2;PMS_P1;PMS_P2;Temp;Humidity;BMP_temperature;BMP_pressure;BME280_temperature;BME280_humidity;BME280_pressure;Samples;Min_cycle;Max_cycle;Signal;HPM_P1;HPM_P2
2023/12/19 00:00:33;;;;;;;40.05;22.45;;;;;;;4.84;100.00;102478.50;5080786;28;20128;-70
2023/12/19 00:03:01;;;;;;;36.78;21.80;;;;;;;4.84;100.00;102473.28;5075710;28;20081;-71
2023/12/19 00:05:28;;;;;;;37.15;21.58;;;;;;;4.84;100.00;102474.13;5069803;28;20067;-71
2023/12/19 00:07:55;;;;;;;42.78;23.55;;;;;;;4.84;100.00;102468.03;5078170;28;20036;-70
2023/12/19 00:10:22;;;;;;;40.20;23.27;;;;;;;4.85;100.00;102472.41;5084907;28;20051;-70
2023/12/19 00:12:49;;;;;;;38.40;23.13;;;;;;;4.84;100.00;102475.88;5073260;28;20037;-71
2023/12/19 00:15:17;;;;;;;42.53;23.88;;;;;;;4.81;100.00;102472.34;5072091;28;20044;-70
2023/12/19 00:17:44;;;;;;;40.08;22.45;;;;;;;4.85;100.00;102488.09;5066514;28;20062;-70
2023/12/19 00:20:12;;;;;;;39.75;23.13;;;;;;;4.85;100.00;102475.91;5074970;28;20045;-71
2023/12/19 00:22:39;;;;;;;42.55;23.52;;;;;;;4.87;100.00;102476.81;5076360;28;20044;-71
2023/12/19 00:25:06;;;;;;;40.30;21.45;;;;;;;4.90;100.00;102468.16;5069422;28;20059;-71
2023/12/19 00:27:34;;;;;;;42.45;23.63;;;;;;;4.91;100.00;102455.13;5066487;28;20044;-70
2023/12/19 00:30:01;;;;;;;41.55;24.75;;;;;;;4.91;100.00;102444.69;5079506;28;20036;-70
2023/12/19 00:32:28;;;;;;;43.55;23.52;;;;;;;4.95;100.00;102458.69;5077725;28;20131;-70
2023/12/19 00:34:55;;;;;;;41.42;22.52;;;;;;;4.98;100.00;102435.22;5081239;28;20055;-70
2023/12/19 00:37:22;;;;;;;47.53;26.95;;;;;;;4.98;100.00;102430.00;5097024;28;20055;-71
2023/12/19 00:39:49;;;;;;;44.53;23.10;;;;;;;5.02;100.00;102431.78;5082816;28;20060;-70
2023/12/19 00:42:16;;;;;;;58.67;30.65;;;;;;;5.02;100.00;102423.09;5071985;28;20063;-70
2023/12/19 00:44:43;;;;;;;222.85;96.00;;;;;;;5.03;100.00;102417.00;5084714;28;20044;-70
2023/12/19 00:47:10;;;;;;;48.35;26.90;;;;;;;5.02;100.00;102407.41;5069414;28;20169;-70
2023/12/19 00:49:37;;;;;;;41.05;23.38;;;;;;;5.05;100.00;102415.28;5082855;28;20041;-70
2023/12/19 00:52:05;;;;;;;41.95;24.30;;;;;;;5.03;100.00;102391.72;5082206;28;20131;-70
2023/12/19 00:54:32;;;;;;;40.30;22.92;;;;;;;5.04;100.00;102374.31;5079962;28;20044;-70
2023/12/19 00:56:59;;;;;;;41.55;23.50;;;;;;;5.04;100.00;102379.53;5069310;28;20051;-70
2023/12/19 00:59:26;;;;;;;38.97;23.58;;;;;;;5.04;100.00;102371.69;5067871;28;20036;-70
2023/12/19 01:01:53;;;;;;;41.88;23.60;;;;;;;5.07;100.00;102382.22;5086046;28;20052;-69
2023/12/19 01:04:20;;;;;;;44.17;24.05;;;;;;;5.08;100.00;102379.63;5073477;28;20123;-71
2023/12/19 01:06:47;;;;;;;42.05;22.83;;;;;;;5.09;100.00;102375.28;5058288;28;20036;-71
2023/12/19 01:09:15;;;;;;;39.70;22.88;;;;;;;5.07;100.00;102371.75;5065758;28;20086;-71
2023/12/19 01:11:42;;;;;;;42.92;23.88;;;;;;;5.08;100.00;102366.56;5067434;28;20037;-71
2023/12/19 01:14:09;;;;;;;41.72;22.70;;;;;;;5.09;100.00;102363.06;5070963;28;20523;-71
2023/12/19 01:16:36;;;;;;;43.72;23.10;;;;;;;5.11;100.00;102363.13;5069766;28;20044;-71
2023/12/19 01:19:06;;;;;;;41.75;23.80;;;;;;;5.12;100.00;102352.69;5074166;28;20054;-71
2023/12/19 01:21:34;;;;;;;41.13;23.85;;;;;;;5.14;100.00;102355.31;5069312;28;20421;-70
2023/12/19 01:24:01;;;;;;;41.85;23.52;;;;;;;5.17;100.00;102351.88;5080386;28;20044;-71
2023/12/19 01:26:29;;;;;;;41.83;20.92;;;;;;;5.17;100.00;102360.59;5081996;28;20044;-71
2023/12/19 01:28:56;;;;;;;46.45;25.23;;;;;;;5.18;100.00;102337.97;5093300;28;20543;-70
2023/12/19 01:31:23;;;;;;;39.35;22.33;;;;;;;5.18;100.00;102341.44;5087600;28;20040;-71
2023/12/19 01:33:52;;;;;;;40.22;23.98;;;;;;;5.17;100.00;102341.44;5090196;28;20140;-71
2023/12/19 01:36:19;;;;;;;41.13;23.48;;;;;;;5.17;100.00;102350.13;5072614;28;20055;-70
2023/12/19 01:38:46;;;;;;;45.88;24.70;;;;;;;5.19;100.00;102339.72;5093427;28;20045;-71
2023/12/19 01:41:13;;;;;;;42.10;22.70;;;;;;;5.19;100.00;102340.59;5072152;28;20036;-71
2023/12/19 01:43:40;;;;;;;44.25;23.85;;;;;;;5.21;100.00;102341.50;5049938;28;20051;-71
2023/12/19 01:46:15;;;;;;;43.42;23.75;;;;;;;5.23;100.00;102334.56;5090673;28;20040;-71
2023/12/19 01:48:43;;;;;;;43.30;22.35;;;;;;;5.22;100.00;102334.53;5070954;28;20102;-72
2023/12/19 01:51:12;;;;;;;50.65;24.83;;;;;;;5.23;100.00;102336.28;5067484;28;20040;-71
2023/12/19 01:53:44;;;;;;;44.47;23.27;;;;;;;5.21;100.00;102345.84;5065871;28;20705;-71
2023/12/19 01:56:12;;;;;;;46.47;23.88;;;;;;;5.19;100.00;102355.41;5066680;28;20048;-71
2023/12/19 01:58:40;;;;;;;45.58;24.10;;;;;;;5.20;100.00;102351.91;5083044;28;20036;-71
2023/12/19 02:01:07;;;;;;;45.38;23.60;;;;;;;5.23;100.00;102351.97;5066532;28;20040;-71
2023/12/19 02:03:36;;;;;;;43.80;22.15;;;;;;;5.24;100.00;102346.75;5070189;28;20630;-71
2023/12/19 02:06:05;;;;;;;47.42;24.95;;;;;;;5.25;100.00;102350.28;5073061;28;20040;-71
2023/12/19 02:08:34;;;;;;;49.28;24.80;;;;;;;5.27;100.00;102344.19;5074221;28;20044;-71
2023/12/19 02:11:01;;;;;;;45.83;24.65;;;;;;;5.27;100.00;102352.03;5079654;28;20140;-71
2023/12/19 02:13:28;;;;;;;50.50;25.08;;;;;;;5.28;100.00;102345.97;5071124;28;20037;-71
2023/12/19 02:15:55;;;;;;;48.13;24.60;;;;;;;5.29;100.00;102337.25;5064940;28;20355;-71
2023/12/19 02:18:22;;;;;;;43.97;22.90;;;;;;;5.32;100.00;102330.31;5069051;28;20415;-71
2023/12/19 02:20:50;;;;;;;43.40;22.73;;;;;;;5.34;100.00;102328.63;5081043;28;20094;-71
2023/12/19 02:23:17;;;;;;;44.30;23.45;;;;;;;5.33;100.00;102327.72;5080193;28;20523;-71
2023/12/19 02:25:46;;;;;;;48.53;25.83;;;;;;;5.34;100.00;102329.50;5061086;28;20044;-72
2023/12/19 02:28:13;;;;;;;50.25;24.27;;;;;;;5.34;100.00;102324.25;5084226;28;20067;-72
2023/12/19 02:30:41;;;;;;;46.15;24.38;;;;;;;5.35;100.00;102320.78;5085503;28;20124;-71
2023/12/19 02:33:10;;;;;;;49.17;24.30;;;;;;;5.35;100.00;102319.88;5092626;28;20139;-72
2023/12/19 02:35:38;;;;;;;45.42;22.85;;;;;;;5.34;100.00;102303.34;5069949;28;20135;-72
2023/12/19 02:38:05;;;;;;;48.10;22.98;;;;;;;5.35;100.00;102301.59;5067454;28;20052;-72
2023/12/19 02:40:32;;;;;;;48.92;23.67;;;;;;;5.34;100.00;102299.84;5083006;28;20561;-72
2023/12/19 02:43:01;;;;;;;50.72;25.20;;;;;;;5.35;100.00;102292.03;5098533;28;20102;-72
2023/12/19 02:45:31;;;;;;;42.17;22.30;;;;;;;5.34;100.00;102281.53;5070057;28;20538;-71
2023/12/19 02:47:59;;;;;;;53.83;25.55;;;;;;;5.33;100.00;102283.25;5067061;28;20043;-71
2023/12/19 02:50:26;;;;;;;46.50;23.40;;;;;;;5.37;100.00;102281.56;5071979;28;20032;-71
2023/12/19 02:52:53;;;;;;;49.90;23.90;;;;;;;5.38;100.00;102280.72;5084515;28;20048;-71
2023/12/19 02:55:20;;;;;;;43.70;23.50;;;;;;;5.37;100.00;102276.34;5069365;28;20045;-71
2023/12/19 02:57:49;;;;;;;47.95;24.67;;;;;;;5.37;100.00;102285.09;5077220;28;20131;-70
2023/12/19 03:00:16;;;;;;;48.83;24.00;;;;;;;5.38;100.00;102276.38;5068384;28;20049;-71
2023/12/19 03:02:44;;;;;;;48.67;24.55;;;;;;;5.38;100.00;102275.47;5074166;28;20059;-71
2023/12/19 03:05:12;;;;;;;41.97;23.60;;;;;;;5.36;100.00;102271.97;5078568;28;20052;-71
2023/12/19 03:07:39;;;;;;;45.40;24.15;;;;;;;5.36;100.00;102262.41;5071135;28;20040;-71
2023/12/19 03:10:08;;;;;;;47.03;22.98;;;;;;;5.35;100.00;102246.66;5085067;28;20510;-71
2023/12/19 03:12:36;;;;;;;45.55;24.55;;;;;;;5.36;100.00;102240.56;5074587;28;20071;-71
2023/12/19 03:15:04;;;;;;;48.85;24.25;;;;;;;5.36;100.00;102237.97;5073422;28;20041;-71
2023/12/19 03:17:31;;;;;;;48.78;25.17;;;;;;;5.38;100.00;102231.03;5078211;28;20045;-71
2023/12/19 03:19:59;;;;;;;47.25;24.73;;;;;;;5.38;100.00;102226.69;5061529;28;20041;-70
2023/12/19 03:22:26;;;;;;;44.70;22.55;;;;;;;5.39;100.00;102228.41;5060835;28;20044;-71
2023/12/19 03:24:56;;;;;;;46.25;22.48;;;;;;;5.41;100.00;102218.00;5090040;28;20512;-71
2023/12/19 03:27:23;;;;;;;41.50;21.08;;;;;;;5.41;100.00;102212.75;5085019;28;20104;-70
2023/12/19 03:29:51;;;;;;;32.92;19.17;;;;;;;5.43;100.00;102213.66;5066085;28;20036;-70
2023/12/19 03:32:19;;;;;;;39.70;20.17;;;;;;;5.42;100.00;102207.53;5066086;28;20122;-70
2023/12/19 03:34:46;;;;;;;34.88;19.55;;;;;;;5.42;100.00;102204.94;5059829;28;20122;-71
2023/12/19 03:37:13;;;;;;;32.97;18.35;;;;;;;5.39;100.00;102197.03;5058471;28;20512;-70
2023/12/19 03:39:40;;;;;;;27.00;17.20;;;;;;;5.40;100.00;102192.69;5066548;28;20041;-71
2023/12/19 03:42:07;;;;;;;31.63;17.98;;;;;;;5.40;100.00;102179.63;5075498;28;20048;-70
2023/12/19 03:44:42;;;;;;;30.70;17.20;;;;;;;5.39;100.00;102172.63;5066520;28;20618;-70
2023/12/19 03:47:12;;;;;;;28.55;16.77;;;;;;;5.38;100.00;102163.91;5065834;28;20527;-71
2023/12/19 03:49:40;;;;;;;27.77;15.77;;;;;;;5.40;100.00;102166.53;5073996;28;20066;-71
2023/12/19 03:52:08;;;;;;;24.67;15.23;;;;;;;5.40;100.00;102162.19;5063945;28;20520;-71
2023/12/19 03:54:36;;;;;;;25.52;14.68;;;;;;;5.41;100.00;102160.47;5097718;28;20044;-70
2023/12/19 03:57:03;;;;;;;27.48;17.52;;;;;;;5.40;100.00;102145.63;5075202;28;20038;-70
2023/12/19 03:59:30;;;;;;;25.40;16.10;;;;;;;5.42;100.00;102146.53;5076086;28;20072;-70
2023/12/19 04:01:59;;;;;;;27.85;17.02;;;;;;;5.44;100.00;102136.97;5076421;28;20385;-70
2023/12/19 04:04:26;;;;;;;28.25;16.40;;;;;;;5.44;100.00;102143.06;5066816;28;20086;-70
2023/12/19 04:06:53;;;;;;;30.30;17.95;;;;;;;5.44;100.00;102142.19;5071380;28;20075;-70
2023/12/19 04:09:21;;;;;;;31.52;18.10;;;;;;;5.43;100.00;102145.66;5101259;28;20036;-71
2023/12/19 04:11:49;;;;;;;30.63;18.10;;;;;;;5.44;100.00;102144.81;5083330;28;20048;-70
2023/12/19 04:14:17;;;;;;;31.88;17.73;;;;;;;5.44;100.00;102140.44;5066316;28;20048;-70
2023/12/19 04:16:44;;;;;;;31.88;17.92;;;;;;;5.47;100.00;102146.56;5067234;28;20045;-71
2023/12/19 04:19:11;;;;;;;34.60;20.25;;;;;;;5.48;100.00;102140.50;5067083;28;20134;-71
2023/12/19 04:21:41;;;;;;;35.28;19.38;;;;;;;5.48;100.00;102135.25;5066235;28;20125;-70
2023/12/19 04:24:10;;;;;;;32.35;19.95;;;;;;;5.49;100.00;102127.41;5066075;28;20664;-71
2023/12/19 04:26:37;;;;;;;31.95;18.15;;;;;;;5.49;100.00;102116.94;5065298;28;20098;-70
2023/12/19 04:29:04;;;;;;;35.08;19.70;;;;;;;5.50;100.00;102121.31;5074106;28;20357;-71
2023/12/19 04:31:31;;;;;;;30.08;18.58;;;;;;;5.51;100.00;102115.25;5074743;28;20040;-71
2023/12/19 04:33:59;;;;;;;30.65;17.58;;;;;;;5.54;100.00;102112.66;5086274;28;20083;-72
2023/12/19 04:36:29;;;;;;;30.40;18.27;;;;;;;5.56;100.00;102100.47;5082445;28;20040;-71
2023/12/19 04:38:58;;;;;;;31.65;18.30;;;;;;;5.58;100.00;102088.28;5069374;28;20040;-72
2023/12/19 04:41:25;;;;;;;30.60;18.75;;;;;;;5.60;100.00;102088.28;5084961;28;20094;-72
2023/12/19 04:43:52;;;;;;;30.30;18.85;;;;;;;5.63;100.00;102079.59;5068501;28;20052;-72
2023/12/19 04:46:19;;;;;;;29.88;17.40;;;;;;;5.64;100.00;102078.75;5068518;28;20056;-72
2023/12/19 04:48:46;;;;;;;30.67;18.63;;;;;;;5.64;100.00;102068.28;5074003;28;20044;-73
2023/12/19 04:51:20;;;;;;;30.33;17.75;;;;;;;5.63;100.00;102062.16;5082707;28;20044;-72
2023/12/19 04:53:48;;;;;;;30.83;17.85;;;;;;;5.64;100.00;102065.66;5085727;28;20044;-72
2023/12/19 04:56:19;;;;;;;29.52;18.17;;;;;;;5.64;100.00;102065.66;5088549;28;20101;-72
2023/12/19 04:58:46;;;;;;;31.17;18.85;;;;;;;5.68;100.00;102077.91;5105852;28;20127;-72
2023/12/19 05:01:13;;;;;;;30.17;18.63;;;;;;;5.68;100.00;102063.09;5070451;28;20110;-72
2023/12/19 05:03:41;;;;;;;31.60;17.88;;;;;;;5.70;100.00;102063.97;5073607;28;20044;-71
2023/12/19 05:06:17;;;;;;;32.45;19.17;;;;;;;5.71;100.00;102052.63;5071703;28;20123;-71
2023/12/19 05:08:45;;;;;;;35.83;20.55;;;;;;;5.73;100.00;102060.53;5084807;28;20052;-72
2023/12/19 05:11:13;;;;;;;32.67;19.98;;;;;;;5.74;100.00;102054.44;5078140;28;20165;-72
2023/12/19 05:13:40;;;;;;;33.25;19.67;;;;;;;5.74;100.00;102044.81;5077008;28;20127;-71
2023/12/19 05:16:18;;;;;;;33.15;18.85;;;;;;;5.75;100.00;102041.34;5052050;28;20049;-72
2023/12/19 05:18:46;;;;;;;30.92;18.67;;;;;;;5.75;100.00;102045.69;5070420;28;20119;-71
2023/12/19 05:21:13;;;;;;;36.00;21.10;;;;;;;5.77;100.00;102032.63;5074508;28;20040;-71
2023/12/19 05:23:41;;;;;;;37.55;20.65;;;;;;;5.75;100.00;102037.84;5064468;28;20040;-71
2023/12/19 05:26:08;;;;;;;37.30;20.60;;;;;;;5.74;100.00;102039.59;5079136;28;20064;-71
2023/12/19 05:28:37;;;;;;;41.08;21.23;;;;;;;5.75;100.00;102036.13;5066231;28;20040;-71
2023/12/19 05:31:09;;;;;;;34.80;21.02;;;;;;;5.79;100.00;102030.91;5070026;28;20033;-71
2023/12/19 05:33:37;;;;;;;37.05;21.63;;;;;;;5.81;100.00;102024.81;5088376;28;20120;-72
2023/12/19 05:36:06;;;;;;;41.05;22.80;;;;;;;5.85;100.00;102023.97;5093445;28;20037;-71
2023/12/19 05:38:33;;;;;;;38.00;21.35;;;;;;;5.87;100.00;102027.47;5069215;28;20041;-71
2023/12/19 05:41:02;;;;;;;43.72;23.17;;;;;;;5.89;100.00;102024.91;5074775;28;20139;-71
2023/12/19 05:43:29;;;;;;;38.03;21.48;;;;;;;5.90;100.00;102026.66;5068786;28;20044;-76
2023/12/19 05:45:57;;;;;;;39.67;22.48;;;;;;;5.99;100.00;102028.44;5063770;28;20128;-71
2023/12/19 05:48:25;;;;;;;35.60;21.40;;;;;;;6.12;100.00;102029.44;5061850;28;20634;-70
2023/12/19 05:50:53;;;;;;;34.55;21.02;;;;;;;6.19;100.00;102019.03;5084713;28;20029;-70
2023/12/19 05:53:20;;;;;;;34.47;20.92;;;;;;;6.29;100.00;102021.72;5067418;28;20066;-70
2023/12/19 05:55:47;;;;;;;30.52;19.65;;;;;;;6.35;100.00;102020.00;5068282;28;20052;-74
2023/12/19 05:58:14;;;;;;;30.55;18.77;;;;;;;6.42;100.00;102020.94;5083193;28;20048;-70
2023/12/19 06:00:44;;;;;;;32.38;20.45;;;;;;;6.52;100.00;102033.22;5063693;28;20040;-71
2023/12/19 06:03:12;;;;;;;30.90;19.77;;;;;;;6.64;100.00;102028.91;5063770;28;20311;-71
2023/12/19 06:05:39;;;;;;;33.17;21.23;;;;;;;6.68;100.00;102028.03;5065193;28;20094;-71
2023/12/19 06:08:07;;;;;;;30.17;20.25;;;;;;;6.75;100.00;102021.97;5055299;28;20094;-71
2023/12/19 06:10:34;;;;;;;32.55;19.45;;;;;;;6.77;100.00;102009.72;5058290;28;20124;-70
2023/12/19 06:13:01;;;;;;;34.85;19.92;;;;;;;6.81;100.00;101995.78;5076721;28;20048;-70
2023/12/19 06:15:29;;;;;;;31.38;18.67;;;;;;;6.82;100.00;101992.28;5060487;28;20053;-70
2023/12/19 06:17:56;;;;;;;27.83;18.60;;;;;;;6.85;100.00;101986.19;5065295;28;20049;-70
2023/12/19 06:20:23;;;;;;;29.00;19.35;;;;;;;6.88;100.00;101975.72;5054724;28;20041;-70
2023/12/19 06:22:50;;;;;;;31.83;19.55;;;;;;;6.92;100.00;101974.81;5056759;28;20039;-70
2023/12/19 06:25:17;;;;;;;29.77;20.05;;;;;;;6.90;100.00;101967.84;5066255;28;20123;-71
2023/12/19 06:27:44;;;;;;;31.05;19.75;;;;;;;6.81;100.00;101977.44;5060409;28;20044;-72
2023/12/19 06:30:12;;;;;;;33.25;20.00;;;;;;;6.72;100.00;101976.50;5062198;28;20040;-72
2023/12/19 06:32:54;;;;;;;34.60;20.55;;;;;;;6.62;100.00;101980.84;5052522;28;20076;-72
2023/12/19 06:35:22;;;;;;;32.90;20.55;;;;;;;6.53;100.00;101985.19;5080978;28;20059;-71
2023/12/19 06:37:49;;;;;;;31.77;20.33;;;;;;;6.51;100.00;101988.66;5063283;28;20051;-72
2023/12/19 06:40:18;;;;;;;34.95;20.85;;;;;;;6.49;100.00;101985.16;5047303;28;20132;-72
2023/12/19 06:42:45;;;;;;;35.92;22.25;;;;;;;6.44;100.00;101979.91;5060497;28;20512;-72
2023/12/19 06:45:12;;;;;;;37.03;22.30;;;;;;;6.42;100.00;101984.25;5065366;28;20056;-71
2023/12/19 06:47:40;;;;;;;36.42;21.58;;;;;;;6.42;100.00;101993.84;5053474;28;20048;-71
2023/12/19 06:50:08;;;;;;;37.75;21.83;;;;;;;6.40;100.00;101975.50;5068441;28;20057;-71
2023/12/19 06:52:35;;;;;;;36.33;21.67;;;;;;;6.39;100.00;101978.13;5064855;28;20559;-71
2023/12/19 06:55:03;;;;;;;39.00;22.90;;;;;;;6.37;100.00;101983.34;5049878;28;20123;-71
2023/12/19 06:57:30;;;;;;;39.42;21.98;;;;;;;6.40;100.00;101985.13;5055552;28;20583;-72
2023/12/19 06:59:58;;;;;;;37.15;21.70;;;;;;;6.41;100.00;101979.00;5096171;28;20028;-72
2023/12/19 07:02:25;;;;;;;38.95;22.30;;;;;;;6.40;100.00;101975.50;5057122;28;20128;-72
2023/12/19 07:04:52;;;;;;;40.03;23.15;;;;;;;6.38;100.00;101972.00;5061206;28;20043;-72
2023/12/19 07:07:19;;;;;;;38.03;22.50;;;;;;;6.42;100.00;101972.88;5056951;28;20103;-71
2023/12/19 07:09:46;;;;;;;38.10;22.50;;;;;;;6.40;100.00;101969.41;5051177;28;20047;-71
2023/12/19 07:12:13;;;;;;;34.55;21.05;;;;;;;6.39;100.00;101965.03;5067291;28;20507;-71
2023/12/19 07:14:41;;;;;;;36.47;21.70;;;;;;;6.42;100.00;101971.16;5067283;28;20042;-71
2023/12/19 07:17:08;;;;;;;41.80;21.70;;;;;;;6.43;100.00;101969.41;5067544;28;20131;-71
2023/12/19 07:19:36;;;;;;;34.35;22.45;;;;;;;6.44;100.00;101964.19;5083021;28;20071;-71
2023/12/19 07:22:03;;;;;;;35.55;21.23;;;;;;;6.44;100.00;101955.44;5068483;28;20041;-71
2023/12/19 07:24:30;;;;;;;32.65;20.80;;;;;;;6.44;100.00;101960.66;5049635;28;20440;-71
2023/12/19 07:26:58;;;;;;;36.88;22.15;;;;;;;6.45;100.00;101954.56;5062259;28;20127;-71
2023/12/19 07:29:25;;;;;;;32.38;20.73;;;;;;;6.46;100.00;101951.94;5055716;28;20439;-71
2023/12/19 07:31:52;;;;;;;36.65;20.30;;;;;;;6.47;100.00;101945.84;5056162;28;20060;-71
2023/12/19 07:34:19;;;;;;;31.60;20.02;;;;;;;6.48;100.00;101944.13;5068135;28;20528;-71
2023/12/19 07:36:47;;;;;;;35.53;20.50;;;;;;;6.48;100.00;101942.34;5067819;28;20040;-71
2023/12/19 07:39:14;;;;;;;30.05;19.25;;;;;;;6.49;100.00;101940.63;5080827;28;20086;-72
2023/12/19 07:41:41;;;;;;;32.17;18.55;;;;;;;6.49;100.00;101938.00;5044446;28;20115;-72
2023/12/19 07:44:09;;;;;;;32.40;21.08;;;;;;;6.50;100.00;101947.63;5064399;28;20036;-71
2023/12/19 07:46:41;;;;;;;31.83;18.95;;;;;;;6.50;100.00;101945.88;5066056;28;20500;-71
2023/12/19 07:49:10;;;;;;;34.63;19.88;;;;;;;6.52;100.00;101953.72;5065919;28;20028;-72
2023/12/19 07:51:37;;;;;;;28.65;19.25;;;;;;;6.50;100.00;101964.19;5066645;28;20044;-71
2023/12/19 07:54:05;;;;;;;30.20;19.23;;;;;;;6.52;100.00;101962.47;5066943;28;20540;-72
2023/12/19 07:56:32;;;;;;;31.33;19.63;;;;;;;6.51;100.00;101963.34;5066987;28;20094;-72
2023/12/19 07:58:59;;;;;;;33.17;20.13;;;;;;;6.52;100.00;101969.44;5058811;28;20633;-71
2023/12/19 08:01:26;;;;;;;37.40;19.42;;;;;;;6.52;100.00;101962.47;5066761;28;20105;-72
2023/12/19 08:03:53;;;;;;;30.88;19.42;;;;;;;6.52;100.00;101949.38;5057400;28;20055;-72
2023/12/19 08:06:21;;;;;;;30.92;18.92;;;;;;;6.53;100.00;101939.75;5068203;28;20067;-72
2023/12/19 08:08:52;;;;;;;36.00;19.65;;;;;;;6.53;100.00;101937.13;5071410;28;20106;-72
2023/12/19 08:11:19;;;;;;;32.55;19.63;;;;;;;6.57;100.00;101932.78;5103629;28;20033;-72
2023/12/19 08:13:50;;;;;;;33.40;19.15;;;;;;;6.60;100.00;101943.28;5078722;28;20045;-72
2023/12/19 08:16:18;;;;;;;27.83;17.77;;;;;;;6.60;100.00;101936.31;5062461;28;20463;-71
2023/12/19 08:18:47;;;;;;;30.02;18.00;;;;;;;6.59;100.00;101931.94;5049976;28;20049;-71
2023/12/19 08:21:14;;;;;;;27.83;18.02;;;;;;;6.61;100.00;101931.94;5081263;28;20051;-71
2023/12/19 08:23:42;;;;;;;31.17;18.30;;;;;;;6.63;100.00;101925.81;5058242;28;20095;-71
2023/12/19 08:26:09;;;;;;;27.65;18.10;;;;;;;6.64;100.00;101922.34;5049949;28;20055;-71
2023/12/19 08:28:37;;;;;;;28.88;17.42;;;;;;;6.67;100.00;101921.47;5088247;28;20059;-71
2023/12/19 08:31:04;;;;;;;34.20;18.20;;;;;;;6.68;100.00;101916.25;5053479;28;20635;-71
2023/12/19 08:33:31;;;;;;;29.75;17.95;;;;;;;6.72;100.00;101914.50;5090027;28;20507;-71
2023/12/19 08:35:58;;;;;;;29.73;17.80;;;;;;;6.73;100.00;101921.50;5069932;28;20052;-71
2023/12/19 08:38:25;;;;;;;29.58;17.98;;;;;;;6.74;100.00;101918.00;5069391;28;20046;-72
2023/12/19 08:40:52;;;;;;;26.48;16.88;;;;;;;6.75;100.00;101909.28;5102413;28;20041;-72
2023/12/19 08:43:20;;;;;;;24.95;16.25;;;;;;;6.79;100.00;101899.66;5065796;28;20131;-72
2023/12/19 08:45:48;;;;;;;24.35;17.50;;;;;;;6.78;100.00;101898.78;5049575;28;20049;-72
2023/12/19 08:48:17;;;;;;;24.45;16.08;;;;;;;6.80;100.00;101896.19;5102042;28;20039;-72
2023/12/19 08:50:45;;;;;;;26.27;16.00;;;;;;;6.81;100.00;101900.56;5070963;28;20520;-72
2023/12/19 08:53:12;;;;;;;27.88;16.13;;;;;;;6.80;100.00;101904.03;5070939;28;20052;-73
2023/12/19 08:55:42;;;;;;;25.60;15.80;;;;;;;6.77;100.00;101894.41;5102285;28;20052;-72
2023/12/19 08:58:09;;;;;;;24.65;15.30;;;;;;;6.76;100.00;101890.06;5068772;28;20032;-72
2023/12/19 09:00:37;;;;;;;26.75;15.52;;;;;;;6.76;100.00;101889.16;5069288;28;20527;-72
2023/12/19 09:03:05;;;;;;;20.83;14.70;;;;;;;6.74;100.00;101883.03;5067151;28;20049;-72
2023/12/19 09:05:33;;;;;;;22.77;15.20;;;;;;;6.74;100.00;101885.66;5060089;28;20051;-71
2023/12/19 09:08:01;;;;;;;21.17;13.80;;;;;;;6.74;100.00;101885.66;5070473;28;20703;-72
2023/12/19 09:10:29;;;;;;;19.73;13.30;;;;;;;6.73;100.00;101886.53;5060760;28;20120;-72
2023/12/19 09:12:57;;;;;;;23.83;14.23;;;;;;;6.71;100.00;101881.28;5049959;28;20091;-72
2023/12/19 09:15:25;;;;;;;18.38;13.90;;;;;;;6.70;100.00;101876.91;5050503;28;20057;-73
2023/12/19 09:17:52;;;;;;;19.88;13.85;;;;;;;6.70;100.00;101882.16;5098053;28;20143;-73
2023/12/19 09:20:21;;;;;;;21.50;13.70;;;;;;;6.70;100.00;101878.69;5081866;28;20107;-72
2023/12/19 09:22:48;;;;;;;19.48;13.27;;;;;;;6.70;100.00;101865.59;5051954;28;20036;-72
2023/12/19 09:25:15;;;;;;;20.52;13.20;;;;;;;6.71;100.00;101865.56;5070219;28;20746;-72
2023/12/19 09:27:45;;;;;;;18.55;13.68;;;;;;;6.72;100.00;101874.28;5068367;28;20545;-72
2023/12/19 09:30:15;;;;;;;19.15;13.25;;;;;;;6.73;100.00;101873.44;5064119;28;20068;-72
2023/12/19 09:32:43;;;;;;;20.38;13.82;;;;;;;6.72;100.00;101875.19;5065620;28;20059;-72
2023/12/19 09:35:11;;;;;;;18.52;12.90;;;;;;;6.72;100.00;101883.06;5049666;28;20509;-73
2023/12/19 09:37:38;;;;;;;18.77;12.73;;;;;;;6.70;100.00;101876.06;5049083;28;20086;-72
2023/12/19 09:40:19;;;;;;;20.05;12.75;;;;;;;6.67;100.00;101872.56;5049626;28;20606;-72
2023/12/19 09:42:46;;;;;;;22.17;12.95;;;;;;;6.67;100.00;101871.66;5081336;28;20686;-72
2023/12/19 09:45:14;;;;;;;17.17;11.80;;;;;;;6.67;100.00;101858.56;5049462;28;20077;-72
2023/12/19 09:48:00;;;;;;;19.50;12.27;;;;;;;6.68;100.00;101863.81;5050143;28;20041;-73
2023/12/19 09:50:28;;;;;;;;;;;;;;;6.66;100.00;101862.09;5049870;28;20048;-72
2023/12/19 09:52:59;;;;;;;18.20;11.80;;;;;;;6.64;100.00;101854.19;5083779;28;19921;-72
2023/12/19 09:55:30;;;;;;;17.23;11.43;;;;;;;6.62;100.00;101855.94;5067337;28;20580;-73
2023/12/19 09:58:00;;;;;;;19.25;10.98;;;;;;;6.62;100.00;101855.06;5066139;28;20597;-72
2023/12/19 10:00:32;;;;;;;15.38;10.57;;;;;;;6.63;100.00;101838.47;5049666;28;20041;-72
2023/12/19 10:03:00;;;;;;;14.98;11.07;;;;;;;6.65;100.00;101831.50;5067536;28;20492;-72
2023/12/19 10:05:27;;;;;;;14.02;9.75;;;;;;;6.68;100.00;101837.63;5068302;28;20068;-72
2023/12/19 10:07:57;;;;;;;14.80;10.45;;;;;;;6.69;100.00;101828.00;5069260;28;20051;-73
2023/12/19 10:10:53;;;;;;;12.73;9.15;;;;;;;6.74;100.00;101828.00;5098404;28;20122;-72
2023/12/19 10:13:35;;;;;;;13.90;10.05;;;;;;;6.75;100.00;101825.41;5066771;28;20045;-72
2023/12/19 10:16:20;;;;;;;34.80;22.90;;;;;;;6.75;100.00;101821.91;5068917;28;20066;-72
2023/12/19 10:19:00;;;;;;;43.10;36.95;;;;;;;6.78;100.00;101803.56;5068109;28;20547;-72
2023/12/19 10:21:28;;;;;;;16.73;13.30;;;;;;;6.79;100.00;101800.94;5064016;28;20396;-72
2023/12/19 10:24:26;;;;;;;136.85;70.68;;;;;;;6.83;100.00;101786.06;5067982;28;20049;-72
2023/12/19 10:27:03;;;;;;;28.20;16.73;;;;;;;6.84;100.00;101796.59;5062227;28;20040;-72
2023/12/19 10:29:36;;;;;;;68.57;48.30;;;;;;;6.86;100.00;101790.47;5062764;28;20125;-72
2023/12/19 10:32:22;;;;;;;17.58;12.73;;;;;;;6.86;100.00;101788.72;5067949;28;20041;-72
2023/12/19 10:34:56;;;;;;;;;;;;;;;6.84;100.00;101779.97;5069846;28;20084;-72
2023/12/19 10:37:27;;;;;;;20.48;17.17;;;;;;;6.87;100.00;101786.97;5068421;28;19924;-73
2023/12/19 10:40:12;;;;;;;20.38;17.33;;;;;;;6.86;100.00;101783.47;5067894;28;20048;-72
2023/12/19 10:42:39;;;;;;;27.08;24.38;;;;;;;6.89;100.00;101780.84;5068033;28;20074;-73
2023/12/19 10:45:07;;;;;;;15.13;13.52;;;;;;;6.91;100.00;101780.84;5066972;28;20036;-72
2023/12/19 10:47:35;;;;;;;23.80;21.42;;;;;;;6.91;100.00;101759.88;5068620;28;20056;-72
2023/12/19 10:50:02;;;;;;;11.98;9.88;;;;;;;6.92;100.00;101765.09;5067676;28;20633;-75
2023/12/19 10:52:36;;;;;;;9.73;8.20;;;;;;;6.93;100.00;101748.50;5068110;28;20044;-72
2023/12/19 10:55:10;;;;;;;10.10;8.45;;;;;;;6.94;100.00;101752.00;5083966;28;20032;-73
2023/12/19 10:57:50;;;;;;;14.65;12.63;;;;;;;6.94;100.00;101739.78;5067105;28;20068;-72
2023/12/19 11:00:22;;;;;;;62.08;55.70;;;;;;;6.94;100.00;101741.53;5099106;28;20045;-72
2023/12/19 11:03:13;;;;;;;31.38;28.30;;;;;;;6.93;100.00;101727.53;5064010;28;20112;-72
2023/12/19 11:05:42;;;;;;;18.83;16.83;;;;;;;6.94;100.00;101734.53;5065594;28;20048;-72
2023/12/19 11:08:17;;;;;;;14.10;12.60;;;;;;;6.95;100.00;101719.69;5066623;28;20047;-72
2023/12/19 11:10:56;;;;;;;9.48;7.93;;;;;;;6.94;100.00;101715.31;5048618;28;20119;-72
2023/12/19 11:13:25;;;;;;;9.27;8.38;;;;;;;6.95;100.00;101709.19;5061603;28;20068;-73
2023/12/19 11:16:12;;;;;;;10.20;8.70;;;;;;;6.97;100.00;101704.81;5083064;28;20040;-73